Airport View

Enter AWOS ICAO identifier for current METAR.

ex. KFNL

KIBM 191855Z AUTO 33008KT 10SM CLR 23/08 A2990 RMK AO2 T02300078

19 Jun 2019 19:13

Frequency: 118.075

Phone: 308-235-2516

Other Area AWOS: K82V - KSNY - KSTK - KBFF

TAF KSNY 191732Z 1918/2018 32010KT P6SM SCT040 BKN250 FM192200 28015KT P6SM VCSH SCT100 SCT250 FM200000 25006KT P6SM SCT150 FM200400 22010KT P6SM FEW250